createdAt,value
2022-12-27T00:02:45.192Z,1.93
2022-12-27T00:05:47.688Z,1.85
2022-12-27T00:08:49.285Z,2.10
2022-12-27T00:11:56.271Z,2.72
2022-12-27T00:14:59.650Z,2.38
2022-12-27T00:18:01.085Z,2.10
2022-12-27T00:21:04.368Z,1.90
2022-12-27T00:24:06.060Z,2.20
2022-12-27T00:27:07.622Z,2.20
2022-12-27T00:30:09.976Z,1.87
2022-12-27T00:33:11.459Z,1.80
2022-12-27T00:36:15.731Z,1.85
2022-12-27T00:39:17.274Z,2.13
2022-12-27T00:42:20.362Z,2.00
2022-12-27T00:45:21.918Z,1.90
2022-12-27T00:48:23.812Z,2.17
2022-12-27T00:51:25.715Z,2.00
2022-12-27T00:54:27.306Z,2.05
2022-12-27T00:57:28.915Z,1.73
2022-12-27T01:00:30.540Z,1.80
2022-12-27T01:03:34.828Z,1.60
2022-12-27T01:06:36.376Z,1.80
2022-12-27T01:09:37.844Z,1.97
2022-12-27T01:12:39.523Z,1.73
2022-12-27T01:15:42.505Z,1.92
2022-12-27T01:18:44.299Z,1.90
2022-12-27T01:21:45.872Z,1.77
2022-12-27T01:24:47.332Z,1.70
2022-12-27T01:27:48.819Z,1.80
2022-12-27T01:30:50.398Z,1.88
2022-12-27T01:33:57.527Z,1.52
2022-12-27T01:36:59.019Z,1.75
2022-12-27T01:40:01.669Z,1.65
2022-12-27T01:43:03.870Z,1.90
2022-12-27T01:46:05.385Z,1.73
2022-12-27T01:49:10.323Z,1.50
2022-12-27T01:52:13.138Z,1.52
2022-12-27T01:55:23.415Z,1.95
2022-12-27T01:58:30.855Z,1.40
2022-12-27T02:01:42.322Z,1.23
2022-12-27T02:04:45.179Z,1.40
2022-12-27T02:08:14.024Z,1.17
2022-12-27T02:11:17.969Z,1.17
2022-12-27T02:14:28.619Z,1.40
2022-12-27T02:17:32.368Z,1.65
2022-12-27T02:20:55.598Z,1.23
2022-12-27T02:24:03.047Z,1.30
2022-12-27T02:27:17.089Z,1.65
2022-12-27T02:30:18.677Z,1.35
2022-12-27T02:33:26.942Z,1.20
2022-12-27T02:36:33.660Z,1.25
2022-12-27T02:39:39.904Z,1.65
2022-12-27T02:42:59.992Z,1.48
2022-12-27T02:46:35.552Z,1.50
2022-12-27T02:49:59.219Z,1.50
2022-12-27T02:53:16.190Z,1.63
2022-12-27T02:56:55.561Z,1.40
2022-12-27T03:00:33.075Z,1.27
2022-12-27T03:03:51.055Z,1.48
2022-12-27T03:07:12.780Z,1.55
2022-12-27T03:10:55.875Z,1.53
2022-12-27T03:17:36.018Z,1.67
2022-12-27T03:21:00.693Z,1.90
2022-12-27T03:24:23.620Z,1.83
2022-12-27T03:27:32.850Z,1.60
2022-12-27T03:30:56.200Z,2.00
2022-12-27T03:34:22.967Z,1.60
2022-12-27T03:37:48.722Z,1.75
2022-12-27T03:41:16.211Z,1.80
2022-12-27T03:44:26.873Z,1.58
2022-12-27T03:47:38.915Z,1.70
2022-12-27T03:51:04.842Z,1.77
2022-12-27T03:54:17.566Z,1.60
2022-12-27T04:00:22.755Z,1.45
2022-12-27T04:03:24.416Z,2.00
2022-12-27T04:06:25.993Z,1.50
2022-12-27T04:09:46.119Z,1.80
2022-12-27T04:13:05.911Z,1.60
2022-12-27T04:16:25.958Z,1.58
2022-12-27T04:19:46.182Z,2.17
2022-12-27T04:23:06.361Z,1.70
2022-12-27T04:26:26.831Z,1.80
2022-12-27T04:29:46.679Z,1.55
2022-12-27T04:33:06.973Z,1.73
2022-12-27T04:36:08.960Z,1.48
2022-12-27T04:39:10.615Z,1.40
2022-12-27T04:42:30.789Z,2.00
2022-12-27T04:45:50.828Z,1.77
2022-12-27T04:49:11.024Z,1.65
2022-12-27T04:52:34.036Z,1.70
2022-12-27T04:55:35.623Z,1.83
2022-12-27T04:58:57.277Z,1.77
2022-12-27T05:02:04.775Z,2.05
2022-12-27T05:05:07.631Z,2.33
2022-12-27T05:08:28.475Z,2.25
2022-12-27T05:11:48.584Z,2.00
2022-12-27T05:14:50.243Z,1.90
2022-12-27T05:17:51.714Z,1.87
2022-12-27T05:20:53.310Z,1.73
2022-12-27T05:24:13.428Z,1.83
2022-12-27T05:27:15.841Z,1.67
2022-12-27T05:30:17.395Z,1.90
2022-12-27T05:33:18.928Z,1.60
2022-12-27T05:36:20.790Z,1.90
2022-12-27T05:39:22.285Z,1.98
2022-12-27T05:42:23.706Z,2.70
2022-12-27T05:45:25.209Z,3.22
2022-12-27T05:48:26.695Z,2.90
2022-12-27T05:51:28.167Z,2.80
2022-12-27T05:54:29.660Z,2.22
2022-12-27T05:57:31.255Z,2.20
2022-12-27T06:00:32.799Z,2.50
2022-12-27T06:03:34.347Z,2.03
2022-12-27T06:06:35.863Z,2.57
2022-12-27T06:09:37.624Z,2.45
2022-12-27T06:12:39.243Z,2.40
2022-12-27T06:15:40.711Z,2.53
2022-12-27T06:18:42.822Z,2.70
2022-12-27T06:21:44.459Z,2.30
2022-12-27T06:24:46.103Z,3.03
2022-12-27T06:27:47.509Z,2.13
2022-12-27T06:30:49.365Z,2.47
2022-12-27T06:33:52.228Z,2.30
2022-12-27T06:36:53.719Z,2.28
2022-12-27T06:39:55.161Z,3.10
2022-12-27T06:42:56.690Z,2.78
2022-12-27T06:45:59.810Z,3.35
2022-12-27T06:49:01.406Z,2.97
2022-12-27T06:52:04.398Z,2.38
2022-12-27T06:55:06.125Z,2.92
2022-12-27T06:58:07.843Z,2.35
2022-12-27T07:01:10.697Z,2.50
2022-12-27T07:04:12.271Z,2.47
2022-12-27T07:07:15.965Z,2.50
2022-12-27T07:10:18.394Z,2.35
2022-12-27T07:13:19.874Z,3.00
2022-12-27T07:16:27.305Z,2.57
2022-12-27T07:19:28.831Z,2.30
2022-12-27T07:22:30.402Z,2.60
2022-12-27T07:25:32.294Z,3.20
2022-12-27T07:28:34.572Z,3.08
2022-12-27T07:31:36.157Z,3.03
2022-12-27T07:34:37.638Z,4.20
2022-12-27T07:37:39.240Z,6.72
2022-12-27T07:40:40.660Z,5.73
2022-12-27T07:43:43.903Z,4.85
2022-12-27T07:46:45.913Z,4.47
2022-12-27T07:49:47.469Z,3.60
2022-12-27T07:52:48.905Z,4.13
2022-12-27T07:55:51.102Z,3.70
2022-12-27T07:58:54.277Z,3.40
2022-12-27T08:02:05.025Z,4.30
2022-12-27T08:05:06.767Z,3.83
2022-12-27T08:08:09.222Z,3.50
2022-12-27T08:14:12.585Z,4.30
2022-12-27T08:17:22.392Z,3.80
2022-12-27T08:20:23.901Z,4.18
2022-12-27T08:23:25.510Z,3.63
2022-12-27T08:26:27.009Z,5.03
2022-12-27T08:29:28.568Z,4.25
2022-12-27T08:32:30.055Z,4.10
2022-12-27T08:38:54.797Z,3.70
2022-12-27T08:41:56.342Z,3.83
2022-12-27T08:44:58.399Z,3.87
2022-12-27T08:48:00.958Z,5.72
2022-12-27T08:51:12.349Z,4.70
2022-12-27T08:54:14.630Z,3.58
2022-12-27T08:57:16.165Z,4.70
2022-12-27T09:03:21.420Z,4.05
2022-12-27T09:06:25.566Z,4.68
2022-12-27T09:09:28.055Z,4.07
2022-12-27T09:12:31.435Z,3.80
2022-12-27T09:15:32.994Z,4.22
2022-12-27T09:18:34.838Z,3.63
2022-12-27T09:21:40.987Z,3.78
2022-12-27T09:24:42.469Z,4.22
2022-12-27T09:27:43.925Z,4.30
2022-12-27T09:30:45.583Z,4.40
2022-12-27T09:33:47.510Z,3.97
2022-12-27T09:36:48.999Z,4.40
2022-12-27T09:39:51.411Z,4.37
2022-12-27T09:43:19.218Z,6.53
2022-12-27T09:46:34.384Z,6.40
2022-12-27T09:49:39.954Z,7.57
2022-12-27T09:52:53.627Z,8.43
2022-12-27T09:55:57.980Z,8.98
2022-12-27T09:59:30.254Z,8.75
2022-12-27T10:02:34.372Z,8.98
2022-12-27T10:05:39.412Z,10.25
2022-12-27T10:09:03.805Z,10.63
2022-12-27T10:12:37.025Z,13.93
2022-12-27T10:15:50.255Z,13.02
2022-12-27T10:19:20.994Z,12.90
2022-12-27T10:22:33.584Z,15.32
2022-12-27T10:28:42.486Z,15.65
2022-12-27T10:31:44.043Z,15.90
2022-12-27T10:34:46.977Z,16.80
2022-12-27T10:37:49.330Z,13.40
2022-12-27T10:43:58.974Z,11.48
2022-12-27T10:47:00.525Z,10.10
2022-12-27T10:50:13.705Z,11.77
2022-12-27T10:53:47.817Z,12.52
2022-12-27T10:56:49.887Z,10.80
2022-12-27T11:00:22.470Z,8.30
2022-12-27T11:03:26.136Z,8.45
2022-12-27T11:06:27.731Z,7.60
2022-12-27T11:09:35.715Z,7.73
2022-12-27T11:12:37.741Z,7.53
2022-12-27T11:15:44.676Z,6.70
2022-12-27T11:18:50.766Z,6.10
2022-12-27T11:21:54.873Z,5.80
2022-12-27T11:24:59.272Z,6.22
2022-12-27T11:28:02.726Z,5.68
2022-12-27T11:31:10.719Z,5.78
2022-12-27T11:34:19.739Z,6.80
2022-12-27T11:37:25.277Z,6.13
2022-12-27T11:40:34.554Z,6.13
2022-12-27T11:43:45.553Z,5.90
2022-12-27T11:47:10.283Z,5.63
2022-12-27T11:50:26.848Z,4.90
2022-12-27T11:53:56.764Z,4.55
2022-12-27T11:57:14.064Z,5.00
2022-12-27T12:00:23.699Z,5.00
2022-12-27T12:03:46.706Z,4.40
2022-12-27T12:07:00.392Z,4.53
2022-12-27T12:10:27.821Z,5.38
2022-12-27T12:14:03.533Z,5.05
2022-12-27T12:17:23.234Z,4.82
2022-12-27T12:20:51.288Z,5.53
2022-12-27T12:24:08.004Z,5.32
2022-12-27T12:27:09.446Z,5.43
2022-12-27T12:30:33.342Z,5.57
2022-12-27T12:34:22.985Z,5.40
2022-12-27T12:37:32.560Z,5.50
2022-12-27T12:40:54.577Z,5.20
2022-12-27T12:44:16.541Z,5.15
2022-12-27T12:47:26.913Z,5.85
2022-12-27T12:50:50.642Z,6.47
2022-12-27T12:54:02.844Z,5.70
2022-12-27T12:57:32.261Z,5.47
2022-12-27T13:00:51.857Z,6.28
2022-12-27T13:04:07.429Z,5.45
2022-12-27T13:07:36.068Z,6.28
2022-12-27T13:10:55.585Z,5.18
2022-12-27T13:14:39.185Z,5.55
2022-12-27T13:17:58.596Z,6.75
2022-12-27T13:21:16.785Z,6.53
2022-12-27T13:24:43.503Z,7.22
2022-12-27T13:28:02.223Z,6.57
2022-12-27T13:31:18.445Z,6.65
2022-12-27T13:34:44.875Z,6.43
2022-12-27T13:38:12.493Z,6.70
2022-12-27T13:41:32.140Z,7.50
2022-12-27T13:44:52.554Z,8.25
2022-12-27T13:48:08.335Z,7.15
2022-12-27T13:51:42.298Z,8.00
2022-12-27T13:55:25.844Z,9.95
2022-12-27T13:59:03.060Z,11.98
2022-12-27T14:02:29.446Z,12.93
2022-12-27T14:06:01.208Z,14.23
2022-12-27T14:09:23.907Z,14.13
2022-12-27T14:16:15.203Z,14.93
2022-12-27T14:19:22.839Z,16.23
2022-12-27T14:23:03.696Z,16.92
2022-12-27T14:26:42.270Z,15.45
2022-12-27T14:30:17.927Z,15.02
2022-12-27T14:33:52.970Z,12.90
2022-12-27T14:37:32.273Z,13.88
2022-12-27T14:40:44.383Z,12.43
2022-12-27T14:43:46.065Z,11.13
2022-12-27T14:47:29.010Z,11.53
2022-12-27T14:50:48.863Z,11.60
2022-12-27T14:53:56.321Z,10.93
2022-12-27T14:57:19.231Z,10.85
2022-12-27T15:00:25.613Z,10.48
2022-12-27T15:03:41.566Z,11.20
2022-12-27T15:07:28.685Z,9.95
2022-12-27T15:10:47.009Z,9.52
2022-12-27T15:14:17.525Z,10.27
2022-12-27T15:17:34.197Z,10.75
2022-12-27T15:21:13.247Z,9.52
2022-12-27T15:24:43.763Z,9.50
2022-12-27T15:28:11.774Z,9.15
2022-12-27T15:31:29.397Z,8.27
2022-12-27T15:35:02.707Z,7.53
2022-12-27T15:38:08.021Z,7.22
2022-12-27T15:41:29.779Z,6.78
2022-12-27T15:44:45.163Z,7.13
2022-12-27T15:48:15.158Z,6.57
2022-12-27T15:51:28.513Z,6.70
2022-12-27T15:54:51.826Z,7.25
2022-12-27T15:58:17.586Z,7.20
2022-12-27T16:01:26.825Z,7.13
2022-12-27T16:04:47.944Z,7.70
2022-12-27T16:08:01.400Z,8.18
2022-12-27T16:11:05.054Z,8.40
2022-12-27T16:14:26.660Z,7.78
2022-12-27T16:17:54.246Z,8.45
2022-12-27T16:20:59.075Z,8.63
2022-12-27T16:24:06.172Z,9.32
2022-12-27T16:27:07.867Z,9.63
2022-12-27T16:30:10.460Z,9.80
2022-12-27T16:33:25.462Z,9.93
2022-12-27T16:36:34.090Z,9.50
2022-12-27T16:40:01.936Z,10.20
2022-12-27T16:43:09.714Z,12.32
2022-12-27T16:46:19.668Z,14.93
2022-12-27T16:49:40.222Z,16.60
2022-12-27T16:53:17.796Z,19.42
2022-12-27T16:56:21.111Z,18.25
2022-12-27T16:59:59.887Z,15.02
2022-12-27T17:03:35.460Z,14.70
2022-12-27T17:06:36.994Z,14.07
2022-12-27T17:09:44.401Z,12.10
2022-12-27T17:12:52.684Z,12.45
2022-12-27T17:16:22.163Z,12.15
2022-12-27T17:19:55.680Z,11.10
2022-12-27T17:22:58.392Z,13.18
2022-12-27T17:26:12.877Z,12.48
2022-12-27T17:29:29.832Z,11.85
2022-12-27T17:32:57.893Z,11.73
2022-12-27T17:36:32.387Z,10.55
2022-12-27T17:39:54.501Z,17.70
2022-12-27T17:43:38.992Z,18.13
2022-12-27T17:47:02.304Z,16.55
2022-12-27T17:50:11.742Z,15.23
2022-12-27T17:53:38.440Z,14.55
2022-12-27T17:57:18.651Z,13.75
2022-12-27T18:00:31.435Z,12.20
2022-12-27T18:06:41.190Z,9.73
2022-12-27T18:09:49.935Z,9.48
2022-12-27T18:13:04.884Z,9.90
2022-12-27T18:16:21.450Z,9.02
2022-12-27T18:19:30.679Z,11.85
2022-12-27T18:22:32.386Z,11.15
2022-12-27T18:25:44.266Z,12.07
2022-12-27T18:28:47.714Z,11.47
2022-12-27T18:31:55.940Z,12.90
2022-12-27T18:35:02.422Z,11.88
2022-12-27T18:38:08.146Z,11.48
2022-12-27T18:41:22.900Z,11.60
2022-12-27T18:44:32.204Z,11.73
2022-12-27T18:47:39.796Z,12.73
2022-12-27T18:50:51.257Z,10.85
2022-12-27T18:53:53.004Z,8.57
2022-12-27T18:56:56.135Z,8.57
2022-12-27T19:00:17.408Z,10.48
2022-12-27T19:03:20.510Z,9.45
2022-12-27T19:06:22.098Z,9.18
2022-12-27T19:09:28.087Z,10.53
2022-12-27T19:12:39.330Z,9.43
2022-12-27T19:15:43.794Z,9.27
2022-12-27T19:18:51.352Z,8.45
2022-12-27T19:21:53.241Z,10.57
2022-12-27T19:25:04.523Z,8.30
2022-12-27T19:28:12.015Z,10.20
2022-12-27T19:31:18.379Z,8.98
2022-12-27T19:34:21.123Z,9.27
2022-12-27T19:37:26.901Z,8.32
2022-12-27T19:40:28.406Z,8.57
2022-12-27T19:43:45.411Z,7.50
2022-12-27T19:46:48.838Z,9.82
2022-12-27T19:49:50.568Z,9.25
2022-12-27T19:52:52.327Z,7.90
2022-12-27T19:55:53.859Z,8.52
2022-12-27T19:58:55.667Z,10.77
2022-12-27T20:01:57.361Z,9.50
2022-12-27T20:04:58.939Z,9.60
2022-12-27T20:08:00.416Z,7.80
2022-12-27T20:11:04.638Z,8.00
2022-12-27T20:14:06.223Z,8.32
2022-12-27T20:17:07.675Z,8.53
2022-12-27T20:20:10.603Z,7.25
2022-12-27T20:23:12.448Z,6.88
2022-12-27T20:26:18.171Z,6.22
2022-12-27T20:29:20.767Z,7.15
2022-12-27T20:32:22.397Z,6.03
2022-12-27T20:35:24.006Z,6.43
2022-12-27T20:38:26.072Z,8.03
2022-12-27T20:41:28.730Z,7.28
2022-12-27T20:44:30.759Z,7.35
2022-12-27T20:47:32.282Z,6.55
2022-12-27T20:50:33.743Z,6.07
2022-12-27T20:53:36.622Z,5.60
2022-12-27T20:56:38.125Z,5.30
2022-12-27T20:59:39.848Z,4.93
2022-12-27T21:02:42.161Z,4.88
2022-12-27T21:05:44.474Z,4.20
2022-12-27T21:08:54.141Z,4.85
2022-12-27T21:11:58.088Z,5.97
2022-12-27T21:14:59.587Z,5.83
2022-12-27T21:18:01.088Z,5.83
2022-12-27T21:21:04.971Z,6.40
2022-12-27T21:24:08.173Z,5.93
2022-12-27T21:27:09.739Z,3.97
2022-12-27T21:30:13.345Z,5.10
2022-12-27T21:33:14.860Z,5.18
2022-12-27T21:36:28.506Z,5.95
2022-12-27T21:39:33.293Z,4.60
2022-12-27T21:42:34.855Z,5.70
2022-12-27T21:45:36.346Z,5.93
2022-12-27T21:48:38.116Z,6.13
2022-12-27T21:51:41.528Z,6.68
2022-12-27T21:55:07.264Z,5.80
2022-12-27T21:58:09.123Z,5.05
2022-12-27T22:01:13.499Z,5.28
2022-12-27T22:04:15.159Z,6.40
2022-12-27T22:07:16.695Z,5.97
2022-12-27T22:10:18.258Z,7.63
2022-12-27T22:13:19.725Z,6.10
2022-12-27T22:16:24.011Z,6.65
2022-12-27T22:19:25.572Z,6.50
2022-12-27T22:22:27.108Z,6.60
2022-12-27T22:25:28.542Z,5.60
2022-12-27T22:28:30.203Z,6.38
2022-12-27T22:31:35.291Z,5.93
2022-12-27T22:34:36.911Z,5.10
2022-12-27T22:37:38.390Z,5.10
2022-12-27T22:40:46.023Z,5.50
2022-12-27T22:44:09.687Z,4.30
2022-12-27T22:47:28.020Z,4.55
2022-12-27T22:50:30.127Z,7.63
2022-12-27T22:53:31.648Z,12.95
2022-12-27T22:56:36.595Z,11.10
2022-12-27T22:59:38.113Z,8.10
2022-12-27T23:02:39.800Z,6.30
2022-12-27T23:05:41.490Z,6.35
2022-12-27T23:08:43.959Z,6.97
2022-12-27T23:11:45.726Z,6.18
2022-12-27T23:14:47.723Z,6.30
2022-12-27T23:17:49.275Z,6.38
2022-12-27T23:21:21.092Z,6.05
2022-12-27T23:24:13.064Z,6.65
2022-12-27T23:27:14.558Z,6.82
2022-12-27T23:30:16.298Z,7.00
2022-12-27T23:33:17.784Z,6.97
2022-12-27T23:36:20.139Z,6.23
2022-12-27T23:39:21.630Z,6.55
2022-12-27T23:42:23.070Z,5.90
2022-12-27T23:45:25.575Z,6.90
2022-12-27T23:48:27.372Z,6.18
2022-12-27T23:51:30.151Z,6.60
2022-12-27T23:54:31.770Z,6.50
2022-12-27T23:57:33.235Z,6.05
